메인 페이지
METAR-TAF:

METAR-TAF

공항 :

공군기지

Shizuhama, 일본

위도: 34-49N, 경도: 138-18E, 고도: 7m

현재 날씨관측

예보는 2 시간 49분 전, 07:48시(UTC)에 발표되었습니다.
여러 방향의 바람 1kt
온도 9°C
습도 66%
기압 1025 hPa
시정 10km 이상
고도 2500ft 상공 구름 조금
고도 5000ft 상공 구름 많음

METAR: RJNY 150748Z VRB01KT 9999 FEW025 BKN050 09/03 Q1025 RMK 1CU025 5SC050 A3028

시각: 19:37 (10:37 UTC)


TAF: 누락

4,000개 이상의 공항 관측 자료 및 예보 (METAR 및 TAF 보고).

지도상에서 검색 가능한 기상관측소가 노란 점과 빨간 점으로 표시되어 있습니다.

기상관측소 명을 보려면 표시 위로 마우스를 이동하세요.

날씨 관측과 예보를 보려면 클릭하세요.

지도 변경 : 확대하려면 엑스 표시가 있는 녹색 버튼, 축소하려면 빼기 표시가 있는 녹색 버튼, 다음 페이지의 지도를 보려면 녹색 화살표를 클릭하세요.


METAR-TAF: